createdAt,value
2023-03-22T00:01:31.129Z,100989.94
2023-03-22T00:04:03.523Z,100994.31
2023-03-22T00:07:27.340Z,100989.09
2023-03-22T00:10:05.746Z,100986.47
2023-03-22T00:16:22.780Z,100976.91
2023-03-22T00:19:11.629Z,100973.41
2023-03-22T00:21:44.679Z,100963.84
2023-03-22T00:25:08.882Z,100962.09
2023-03-22T00:27:57.227Z,100967.31
2023-03-22T00:30:29.934Z,100958.59
2023-03-22T00:33:44.655Z,100962.09
2023-03-22T00:36:32.875Z,100950.78
2023-03-22T00:39:05.624Z,100958.59
2023-03-22T00:41:37.847Z,100959.47
2023-03-22T00:44:12.811Z,100947.31
2023-03-22T00:47:10.555Z,100949.91
2023-03-22T00:49:42.855Z,100949.00
2023-03-22T00:52:32.328Z,100940.34
2023-03-22T00:55:05.197Z,100940.34
2023-03-22T00:57:54.220Z,100939.47
2023-03-22T01:00:26.836Z,100931.63
2023-03-22T01:03:04.743Z,100930.75
2023-03-22T01:05:49.927Z,100923.78
2023-03-22T01:11:10.973Z,100920.28
2023-03-22T01:14:00.917Z,100918.56
2023-03-22T01:16:35.758Z,100917.69
2023-03-22T01:19:12.059Z,100920.31
2023-03-22T01:21:44.218Z,100914.22
2023-03-22T01:24:17.005Z,100918.56
2023-03-22T01:26:49.083Z,100902.03
2023-03-22T01:29:21.374Z,100909.84
2023-03-22T01:31:54.071Z,100900.28
2023-03-22T01:35:00.142Z,100902.91
2023-03-22T01:37:32.907Z,100894.19
2023-03-22T01:40:06.772Z,100889.81
2023-03-22T01:42:39.002Z,100886.34
2023-03-22T01:45:14.271Z,100885.47
2023-03-22T01:47:59.071Z,100885.47
2023-03-22T01:50:31.855Z,100876.78
2023-03-22T01:53:06.917Z,100877.66
2023-03-22T01:55:39.376Z,100881.09
2023-03-22T01:58:11.938Z,100880.22
2023-03-22T02:00:46.729Z,100872.38
2023-03-22T02:03:31.119Z,100875.00
2023-03-22T02:06:03.942Z,100861.94
2023-03-22T02:08:36.154Z,100864.53
2023-03-22T02:11:15.545Z,100854.09
2023-03-22T02:14:09.272Z,100854.09
2023-03-22T02:17:14.121Z,100854.06
2023-03-22T02:20:38.501Z,100853.22
2023-03-22T02:24:06.810Z,100851.47
2023-03-22T02:27:06.640Z,100847.16
2023-03-22T02:29:53.859Z,100852.31
2023-03-22T02:32:34.666Z,100848.84
2023-03-22T02:35:32.912Z,100850.56
2023-03-22T02:38:54.378Z,100843.63
2023-03-22T02:41:48.304Z,100850.56
2023-03-22T02:44:27.142Z,100842.69
2023-03-22T02:47:09.888Z,100847.03
2023-03-22T02:49:49.544Z,100849.63
2023-03-22T02:52:43.300Z,100845.28
2023-03-22T02:55:43.635Z,100844.41
2023-03-22T02:58:19.290Z,100845.28
2023-03-22T03:01:06.844Z,100846.16
2023-03-22T03:03:39.874Z,100834.75
2023-03-22T03:06:17.145Z,100829.53
2023-03-22T03:08:53.644Z,100846.94
2023-03-22T03:11:25.908Z,100829.56
2023-03-22T03:13:58.434Z,100838.25
2023-03-22T03:16:35.144Z,100833.97
2023-03-22T03:19:26.910Z,100833.94
2023-03-22T03:22:19.052Z,100827.78
2023-03-22T03:25:43.434Z,100831.25
2023-03-22T03:28:43.372Z,100826.88
2023-03-22T03:31:37.388Z,100828.63
2023-03-22T03:34:32.928Z,100832.06
2023-03-22T03:37:16.099Z,100831.22
2023-03-22T03:40:11.119Z,100830.38
2023-03-22T03:42:49.729Z,100825.13
2023-03-22T03:45:23.341Z,100828.63
2023-03-22T03:48:00.781Z,100824.22
2023-03-22T03:50:33.454Z,100824.28
2023-03-22T03:53:06.376Z,100817.34
2023-03-22T03:55:38.469Z,100823.38
2023-03-22T03:58:10.768Z,100818.16
2023-03-22T04:00:44.398Z,100817.34
2023-03-22T04:03:17.085Z,100817.31
2023-03-22T04:05:49.128Z,100813.78
2023-03-22T04:08:24.030Z,100821.66
2023-03-22T04:10:56.116Z,100818.19
2023-03-22T04:13:28.098Z,100814.69
2023-03-22T04:16:02.283Z,100811.19
2023-03-22T04:18:34.863Z,100810.34
2023-03-22T04:21:07.827Z,100812.91
2023-03-22T04:23:41.137Z,100810.31
2023-03-22T04:26:13.804Z,100805.13
2023-03-22T04:28:45.859Z,100807.75
2023-03-22T04:31:18.752Z,100809.47
2023-03-22T04:33:55.065Z,100806.00
2023-03-22T04:36:31.669Z,100802.50
2023-03-22T04:39:34.964Z,100799.00
2023-03-22T04:42:17.027Z,100800.75
2023-03-22T04:44:50.605Z,100795.47
2023-03-22T04:52:07.408Z,100780.72
2023-03-22T04:54:40.267Z,100785.03
2023-03-22T04:57:14.798Z,100786.84
2023-03-22T04:59:51.360Z,100788.56
2023-03-22T05:02:41.652Z,100787.72
2023-03-22T05:05:14.286Z,100786.00
2023-03-22T05:07:48.779Z,100784.28
2023-03-22T05:10:44.977Z,100774.69
2023-03-22T05:13:17.040Z,100776.41
2023-03-22T05:15:50.081Z,100779.88
2023-03-22T05:18:32.937Z,100779.91
2023-03-22T05:21:08.761Z,100771.22
2023-03-22T05:23:44.983Z,100762.59
2023-03-22T05:26:27.287Z,100765.16
2023-03-22T05:29:00.536Z,100768.59
2023-03-22T05:35:05.060Z,100764.34
2023-03-22T05:37:38.375Z,100761.66
2023-03-22T05:40:12.672Z,100765.09
2023-03-22T05:42:47.423Z,100757.28
2023-03-22T05:45:20.853Z,100753.81
2023-03-22T05:47:53.434Z,100751.19
2023-03-22T05:50:25.774Z,100745.00
2023-03-22T05:52:59.104Z,100748.41
2023-03-22T05:55:32.307Z,100749.28
2023-03-22T05:58:05.363Z,100752.81
2023-03-22T06:00:51.695Z,100756.25
2023-03-22T06:03:24.252Z,100746.66
2023-03-22T06:05:56.512Z,100748.34
2023-03-22T06:08:28.767Z,100757.06
2023-03-22T06:11:00.995Z,100744.91
2023-03-22T06:13:33.496Z,100747.50
2023-03-22T06:16:06.338Z,100739.72
2023-03-22T06:18:39.492Z,100738.78
2023-03-22T06:23:58.285Z,100730.75
2023-03-22T06:26:30.560Z,100732.44
2023-03-22T06:29:03.800Z,100734.19
2023-03-22T06:31:35.997Z,100729.00
2023-03-22T06:34:08.226Z,100741.19
2023-03-22T06:36:41.154Z,100734.94
2023-03-22T06:39:13.342Z,100740.88
2023-03-22T06:41:45.869Z,100732.97
2023-03-22T06:44:18.762Z,100735.72
2023-03-22T06:46:51.314Z,100726.06
2023-03-22T06:49:24.294Z,100731.31
2023-03-22T06:51:56.730Z,100727.88
2023-03-22T06:54:28.839Z,100726.03
2023-03-22T06:57:01.008Z,100721.59
2023-03-22T06:59:33.639Z,100724.09
2023-03-22T07:02:06.912Z,100712.75
2023-03-22T07:04:39.358Z,100720.69
2023-03-22T07:07:11.582Z,100720.75
2023-03-22T07:09:44.210Z,100712.72
2023-03-22T07:12:16.932Z,100719.56
2023-03-22T07:14:49.733Z,100722.19
2023-03-22T07:17:21.926Z,100718.72
2023-03-22T07:19:54.295Z,100717.94
2023-03-22T07:22:27.713Z,100719.53
2023-03-22T07:25:01.683Z,100713.31
2023-03-22T07:27:34.115Z,100709.81
2023-03-22T07:30:09.705Z,100700.94
2023-03-22T07:32:41.983Z,100704.41
2023-03-22T07:35:14.369Z,100699.34
2023-03-22T07:37:49.108Z,100691.34
2023-03-22T07:40:22.596Z,100685.28
2023-03-22T07:42:55.972Z,100682.69
2023-03-22T07:45:28.778Z,100679.22
2023-03-22T07:48:01.854Z,100674.56
2023-03-22T07:50:34.794Z,100672.75
2023-03-22T07:53:06.899Z,100674.38
2023-03-22T07:55:43.154Z,100671.50
2023-03-22T07:58:15.541Z,100662.78
2023-03-22T08:00:49.805Z,100663.69
2023-03-22T08:03:22.441Z,100658.53
2023-03-22T08:05:54.697Z,100658.44
2023-03-22T08:08:27.590Z,100660.75
2023-03-22T08:10:59.846Z,100667.00
2023-03-22T08:13:32.517Z,100658.91
2023-03-22T08:16:06.257Z,100657.50
2023-03-22T08:18:38.368Z,100662.81
2023-03-22T08:21:11.059Z,100659.22
2023-03-22T08:23:43.267Z,100643.75
2023-03-22T08:26:16.096Z,100638.94
2023-03-22T08:28:48.158Z,100639.81
2023-03-22T08:31:21.283Z,100636.16
2023-03-22T08:33:53.458Z,100638.84
2023-03-22T08:36:25.813Z,100639.81
2023-03-22T08:38:58.083Z,100648.50
2023-03-22T08:41:31.469Z,100644.69
2023-03-22T08:44:03.612Z,100641.06
2023-03-22T08:46:36.076Z,100643.59
2023-03-22T08:49:10.579Z,100628.13
2023-03-22T08:51:42.883Z,100633.94
2023-03-22T08:54:15.108Z,100631.38
2023-03-22T08:56:48.468Z,100633.59
2023-03-22T08:59:20.749Z,100637.84
2023-03-22T09:01:53.002Z,100633.03
2023-03-22T09:04:25.185Z,100623.91
2023-03-22T09:06:57.664Z,100637.44
2023-03-22T09:09:29.831Z,100634.97
2023-03-22T09:12:02.139Z,100633.09
2023-03-22T09:14:34.262Z,100627.13
2023-03-22T09:17:16.064Z,100623.66
2023-03-22T09:19:48.371Z,100609.19
2023-03-22T09:22:20.463Z,100612.69
2023-03-22T09:24:57.585Z,100611.97
2023-03-22T09:27:29.938Z,100612.53
2023-03-22T09:30:03.656Z,100614.19
2023-03-22T09:32:36.244Z,100607.72
2023-03-22T09:35:08.582Z,100597.28
2023-03-22T09:37:40.674Z,100600.91
2023-03-22T09:40:13.757Z,100606.94
2023-03-22T09:42:49.823Z,100601.81
2023-03-22T09:45:38.572Z,100602.31
2023-03-22T09:48:20.772Z,100610.41
2023-03-22T09:50:54.864Z,100622.16
2023-03-22T09:53:30.762Z,100619.41
2023-03-22T09:56:24.994Z,100627.31
2023-03-22T09:59:30.195Z,100637.38
2023-03-22T10:02:47.473Z,100624.28
2023-03-22T10:05:30.481Z,100628.50
2023-03-22T10:08:37.424Z,100628.38
2023-03-22T10:11:32.348Z,100638.94
2023-03-22T10:14:36.662Z,100637.75
2023-03-22T10:17:19.091Z,100642.81
2023-03-22T10:20:09.667Z,100624.28
2023-03-22T10:22:44.946Z,100621.25
2023-03-22T10:25:22.878Z,100616.38
2023-03-22T10:27:56.012Z,100624.81
2023-03-22T10:30:37.889Z,100617.13
2023-03-22T10:33:50.606Z,100614.25
2023-03-22T10:36:27.835Z,100615.50
2023-03-22T10:39:16.868Z,100606.78
2023-03-22T10:41:50.072Z,100610.50
2023-03-22T10:44:51.472Z,100624.75
2023-03-22T10:48:29.191Z,100627.84
2023-03-22T10:51:02.390Z,100623.09
2023-03-22T10:53:51.087Z,100629.38
2023-03-22T10:56:23.191Z,100622.75
2023-03-22T10:59:11.485Z,100632.84
2023-03-22T11:03:08.868Z,100617.44
2023-03-22T11:05:47.415Z,100631.69
2023-03-22T11:12:01.036Z,100603.63
2023-03-22T11:25:28.635Z,100603.56
2023-03-22T11:28:26.311Z,100606.34
2023-03-22T11:31:08.638Z,100601.41
2023-03-22T11:34:00.143Z,100605.63
2023-03-22T11:40:19.627Z,100607.28
2023-03-22T11:46:24.075Z,100619.63
2023-03-22T11:49:09.534Z,100600.63
2023-03-22T11:51:42.956Z,100606.72
2023-03-22T11:54:39.289Z,100617.88
2023-03-22T11:57:17.462Z,100627.72
2023-03-22T12:00:02.268Z,100617.81
2023-03-22T12:03:01.108Z,100623.59
2023-03-22T12:05:37.889Z,100627.75
2023-03-22T12:08:56.535Z,100624.19
2023-03-22T12:12:26.659Z,100619.56
2023-03-22T12:16:59.699Z,100622.00
2023-03-22T12:31:43.852Z,100612.38
2023-03-22T12:34:20.276Z,100620.28
2023-03-22T12:36:59.226Z,100611.63
2023-03-22T12:39:53.958Z,100620.50
2023-03-22T12:42:50.389Z,100608.41
2023-03-22T12:45:43.947Z,100601.56
2023-03-22T12:48:43.411Z,100608.63
2023-03-22T12:54:27.975Z,100608.09
2023-03-22T12:57:04.105Z,100602.75
2023-03-22T13:00:19.267Z,100600.94
2023-03-22T13:03:32.935Z,100606.09
2023-03-22T13:09:30.635Z,100607.41
2023-03-22T13:12:22.189Z,100611.63
2023-03-22T13:15:34.794Z,100613.19
2023-03-22T13:21:32.691Z,100610.34
2023-03-22T13:24:32.636Z,100594.19
2023-03-22T13:27:16.520Z,100598.28
2023-03-22T13:30:06.510Z,100587.53
2023-03-22T13:33:03.907Z,100598.94
2023-03-22T13:38:35.122Z,100604.31
2023-03-22T13:41:41.592Z,100614.78
2023-03-22T13:44:47.774Z,100614.00
2023-03-22T13:47:59.058Z,100621.06
2023-03-22T13:50:42.686Z,100620.06
2023-03-22T13:57:06.772Z,100614.00
2023-03-22T14:00:52.532Z,100611.56
2023-03-22T14:07:45.192Z,100607.09
2023-03-22T14:11:29.760Z,100589.53
2023-03-22T14:15:12.943Z,100591.97
2023-03-22T14:18:28.129Z,100578.06
2023-03-22T14:52:34.867Z,100606.19
2023-03-22T14:55:20.179Z,100618.41
2023-03-22T14:58:01.568Z,100605.31
2023-03-22T15:01:09.278Z,100611.47
2023-03-22T15:03:41.645Z,100637.78
2023-03-22T15:06:30.899Z,100627.19
2023-03-22T15:09:12.664Z,100632.84
2023-03-22T15:12:09.092Z,100625.88
2023-03-22T15:14:54.043Z,100630.19
2023-03-22T15:20:31.737Z,100639.59
2023-03-22T15:24:14.199Z,100639.81
2023-03-22T15:27:17.100Z,100632.09
2023-03-22T15:29:50.329Z,100632.13
2023-03-22T15:32:31.829Z,100620.59
2023-03-22T15:35:08.401Z,100643.19
2023-03-22T15:37:54.956Z,100636.19
2023-03-22T15:40:49.790Z,100631.53
2023-03-22T15:47:10.610Z,100630.91
2023-03-22T15:50:04.662Z,100643.34
2023-03-22T15:53:22.912Z,100626.22
2023-03-22T15:55:55.827Z,100617.41
2023-03-22T15:59:42.781Z,100607.72
2023-03-22T16:05:44.184Z,100608.38
2023-03-22T16:08:16.850Z,100601.13
2023-03-22T16:10:49.458Z,100601.00
2023-03-22T16:13:25.764Z,100602.25
2023-03-22T16:19:31.032Z,100604.81
2023-03-22T16:22:03.207Z,100602.97
2023-03-22T16:24:40.333Z,100605.75
2023-03-22T16:27:16.412Z,100607.50
2023-03-22T16:29:51.495Z,100605.75
2023-03-22T16:32:33.868Z,100611.09
2023-03-22T16:35:32.302Z,100618.94
2023-03-22T16:38:04.769Z,100608.53
2023-03-22T16:40:52.764Z,100625.25
2023-03-22T16:43:28.320Z,100624.34
2023-03-22T16:46:04.499Z,100623.34
2023-03-22T16:48:46.997Z,100612.13
2023-03-22T16:51:28.643Z,100622.50
2023-03-22T16:54:00.949Z,100635.56
2023-03-22T16:56:39.494Z,100631.94
2023-03-22T16:59:11.781Z,100622.63
2023-03-22T17:01:46.817Z,100620.78
2023-03-22T17:04:19.173Z,100617.97
2023-03-22T17:07:26.866Z,100620.44
2023-03-22T17:10:01.006Z,100619.63
2023-03-22T17:12:46.998Z,100617.41
2023-03-22T17:15:41.887Z,100620.97
2023-03-22T17:50:50.115Z,100578.59
2023-03-22T17:54:00.541Z,100580.56
2023-03-22T18:08:25.978Z,100585.00
2023-03-22T18:14:26.994Z,100585.81
2023-03-22T18:17:03.587Z,100575.44
2023-03-22T18:22:20.392Z,100583.13
2023-03-22T18:25:01.538Z,100577.78
2023-03-22T18:28:13.006Z,100584.72
2023-03-22T18:30:52.556Z,100588.34
2023-03-22T18:33:46.999Z,100585.63
2023-03-22T18:36:29.612Z,100583.16
2023-03-22T18:39:56.250Z,100573.47
2023-03-22T18:42:20.650Z,100570.88
2023-03-22T18:48:48.085Z,100561.13
2023-03-22T18:55:35.951Z,100562.19
2023-03-22T18:58:09.070Z,100565.47
2023-03-22T19:00:55.623Z,100560.34
2023-03-22T19:04:04.433Z,100560.22
2023-03-22T19:07:00.908Z,100557.47
2023-03-22T19:17:46.421Z,100567.03
2023-03-22T19:24:44.129Z,100572.25
2023-03-22T19:28:30.063Z,100559.91
2023-03-22T19:34:07.419Z,100561.97
2023-03-22T19:36:49.180Z,100553.22
2023-03-22T19:47:25.910Z,100532.88
2023-03-22T19:50:26.488Z,100535.41
2023-03-22T19:57:21.488Z,100538.84
2023-03-22T20:00:28.408Z,100541.44
2023-03-22T20:02:45.893Z,100537.03
2023-03-22T20:05:21.060Z,100545.00
2023-03-22T20:07:54.636Z,100543.97
2023-03-22T20:10:29.810Z,100537.00
2023-03-22T20:13:11.438Z,100536.09
2023-03-22T20:16:04.535Z,100540.59
2023-03-22T20:22:44.007Z,100528.56
2023-03-22T20:28:12.905Z,100528.94
2023-03-22T20:30:47.821Z,100514.94
2023-03-22T20:33:25.635Z,100500.22
2023-03-22T20:39:29.237Z,100487.97
2023-03-22T20:42:19.318Z,100488.03
2023-03-22T20:49:02.232Z,100474.63
2023-03-22T20:56:57.559Z,100479.75
2023-03-22T20:59:30.727Z,100472.59
2023-03-22T21:02:05.908Z,100487.56
2023-03-22T21:04:38.270Z,100481.53
2023-03-22T21:07:17.335Z,100481.69
2023-03-22T21:10:00.888Z,100485.50
2023-03-22T21:12:46.493Z,100478.75
2023-03-22T21:15:18.652Z,100459.59
2023-03-22T21:17:59.524Z,100458.72
2023-03-22T21:20:32.825Z,100460.41
2023-03-22T21:23:22.301Z,100473.50
2023-03-22T21:30:06.231Z,100466.53
2023-03-22T21:35:53.435Z,100476.09
2023-03-22T21:36:36.546Z,100478.50
2023-03-22T21:47:56.469Z,100449.31
2023-03-22T21:54:22.353Z,100453.97
2023-03-22T21:56:57.655Z,100469.00
2023-03-22T21:59:30.142Z,100465.97
2023-03-22T22:02:02.918Z,100472.19
2023-03-22T22:04:35.093Z,100468.91
2023-03-22T22:07:07.823Z,100469.94
2023-03-22T22:09:41.903Z,100465.69
2023-03-22T22:12:14.635Z,100471.06
2023-03-22T22:14:46.818Z,100461.53
2023-03-22T22:17:18.951Z,100461.63
2023-03-22T22:19:51.340Z,100451.97
2023-03-22T22:22:23.444Z,100438.03
2023-03-22T22:24:55.477Z,100441.47
2023-03-22T22:27:27.633Z,100432.84
2023-03-22T22:29:59.923Z,100431.03
2023-03-22T22:32:36.689Z,100437.16
2023-03-22T22:35:11.137Z,100431.03
2023-03-22T22:37:43.330Z,100424.03
2023-03-22T22:40:16.558Z,100416.91
2023-03-22T22:42:48.688Z,100421.44
2023-03-22T22:45:21.126Z,100420.69
2023-03-22T22:47:53.865Z,100418.97
2023-03-22T22:50:25.973Z,100416.41
2023-03-22T22:52:58.475Z,100421.66
2023-03-22T22:55:31.038Z,100419.09
2023-03-22T22:58:04.117Z,100415.63
2023-03-22T23:00:36.453Z,100406.03
2023-03-22T23:03:08.723Z,100403.50
2023-03-22T23:05:41.739Z,100400.88
2023-03-22T23:08:14.220Z,100408.63
2023-03-22T23:10:53.269Z,100404.13
2023-03-22T23:13:27.715Z,100412.88
2023-03-22T23:16:03.356Z,100410.25
2023-03-22T23:18:36.899Z,100408.53
2023-03-22T23:21:15.144Z,100413.69
2023-03-22T23:23:50.016Z,100399.75
2023-03-22T23:26:22.997Z,100398.13
2023-03-22T23:28:59.343Z,100387.59
2023-03-22T23:31:32.106Z,100393.59
2023-03-22T23:34:04.429Z,100396.31
2023-03-22T23:36:36.973Z,100392.75
2023-03-22T23:39:09.173Z,100395.34
2023-03-22T23:41:41.484Z,100382.25
2023-03-22T23:44:16.212Z,100390.81
2023-03-22T23:46:48.517Z,100373.41
2023-03-22T23:49:20.891Z,100366.50
2023-03-22T23:51:53.199Z,100354.47
2023-03-22T23:54:25.895Z,100338.81
2023-03-22T23:56:58.023Z,100325.81
2023-03-22T23:59:30.615Z,100331.03
